Airfield :
LOGIN :

Register | Disclaimer

   EN    FR    IT 

 










Legend :    VFR   Marginal VFR   IFR   Intensive IFR   Very Intensive IFR
Visi :
Ceiling :
>= 8 km
>= 3000ft
5 to 8 km
1000 to 3000 ft
1500m to 5 km
500 to 1000 ft
800 to 1500m
200 to 500 ft
< 800m
< 200 ft
Symbols :   Thunderstorms  Fog  Heavy snow  Heavy precipitations  Wind > 20 kt
SIGMETs :     Misc.  Thunderstorms  Icing  Turbulence  Mountain Waves  Volcanic Ashes







- Airport Elevation : 1339 ft


ETHN - Niederstetten

CURRENT METAR :
  • 151520Z 25016KT 9999 FEW007 BKN040 BKN100 01/M00 Q0998 RESN BLU

EXPIRED METARs :
  • 151505Z 25016KT 8000 -SN SCT005 BKN040 OVC100 00/M01 Q0998 RESN BLU
  • 151446Z 25018KT 0600 +SN VV002 01/M00 Q0997 RED
  • 151441Z 25018KT 1200 SN OVC003 01/M00 Q0997 AMB
  • 151420Z 23012KT 2500 SN OVC003 01/M00 Q0997 YLO
  • 151406Z 23014KT 1200 SNRA OVC003 01/M00 Q0997 AMB
  • 151348Z 23009KT 7000 -SNRA OVC005 01/00 Q0997 YLO
  • 151320Z 25010KT 7000 -SNRA SCT007 OVC015 02/00 Q0996 WHT
  • 151302Z 23013KT 6000 -RASN FEW008 OVC015 03/00 Q0996 WHT

TAF AMD TAF ETHN
Valid from the 15 at 09:00 until the 15 at 18:00 UTC


151056Z 1509/1518 23010G20KT 9999 NSW SCT010 BKN025
TEMPO 1510/1516 26015G25KT 2000 SHSNRA BKN006 BKN015CB CANCEL 1600
No reported NOTAMs for that airfield.



MET'MAP, your aeronautical weather chart ! - Copyright ORBIFLY December 2007 - Disclaimer

ORBIFLY MET'MAP TEAM :

Programming & Development : Alexandra Zaïnal
Concept & Development : Baudouin d'Aumeries
Co-Development & Prog : Marc-Olivier Méhu
Technical & hardware support : Manuel Goepfert

Contact : metmap@orbifly.com




SOURCES & CREDITS :

   NOAA